Time;durP1;ratioP1;P1;durP2;ratioP2;P2;SDS_P1;SDS_P2;PMS_P1;PMS_P2;Temp;Humidity;BMP_temperature;BMP_pressure;BME280_temperature;BME280_humidity;BME280_pressure;Samples;Min_cycle;Max_cycle;Signal;HPM_P1;HPM_P2
2022/07/25 00:01:41;;;;;;;4.60;3.47;;;26.20;57.30;;;;;;5022271;28;20250;-73
2022/07/25 00:04:07;;;;;;;4.40;4.00;;;26.20;57.50;;;;;;5053611;28;20567;-73
2022/07/25 00:06:34;;;;;;;5.40;4.23;;;26.10;57.60;;;;;;5052122;28;20599;-73
2022/07/25 00:09:00;;;;;;;4.17;3.87;;;26.10;57.70;;;;;;5054793;28;20587;-73
2022/07/25 00:11:27;;;;;;;5.33;3.73;;;26.00;57.90;;;;;;5054518;28;20603;-74
2022/07/25 00:13:52;;;;;;;3.80;3.50;;;26.00;58.00;;;;;;5054619;28;20664;-74
2022/07/25 00:16:18;;;;;;;4.97;4.47;;;26.00;58.00;;;;;;5054152;28;20603;-74
2022/07/25 00:18:44;;;;;;;7.73;4.47;;;26.00;58.30;;;;;;5054593;28;20192;-73
2022/07/25 00:21:09;;;;;;;4.30;3.90;;;25.90;58.30;;;;;;5054223;28;20252;-74
2022/07/25 00:23:35;;;;;;;4.33;3.93;;;25.90;58.60;;;;;;5054722;28;20177;-74
2022/07/25 00:26:01;;;;;;;5.37;4.33;;;25.90;58.70;;;;;;5053931;28;20212;-74
2022/07/25 00:28:27;;;;;;;5.37;3.70;;;25.80;59.00;;;;;;5054164;28;20201;-74
2022/07/25 00:30:53;;;;;;;3.93;3.50;;;25.80;59.20;;;;;;5054157;28;20169;-73
2022/07/25 00:33:19;;;;;;;5.63;4.87;;;25.70;59.70;;;;;;5054122;28;20176;-73
2022/07/25 00:35:45;;;;;;;4.80;4.40;;;25.70;59.50;;;;;;5054033;28;20579;-73
2022/07/25 00:38:11;;;;;;;5.50;4.23;;;25.60;59.70;;;;;;5054290;28;20193;-73
2022/07/25 00:40:37;;;;;;;4.70;4.03;;;25.60;61.40;;;;;;5059417;28;20169;-73
2022/07/25 00:43:03;;;;;;;4.43;3.87;;;25.60;59.90;;;;;;5054381;28;20563;-73
2022/07/25 00:45:29;;;;;;;5.37;4.30;;;25.60;60.10;;;;;;5058159;28;20623;-73
2022/07/25 00:47:55;;;;;;;4.17;3.77;;;25.60;60.40;;;;;;5057649;28;20587;-74
2022/07/25 00:50:20;;;;;;;4.07;3.73;;;25.50;60.40;;;;;;5056952;28;20165;-73
2022/07/25 00:52:47;;;;;;;4.70;4.17;;;25.50;60.60;;;;;;5056741;28;20173;-73
2022/07/25 00:55:13;;;;;;;5.87;3.83;;;25.50;61.40;;;;;;5057440;28;20181;-73
2022/07/25 00:57:38;;;;;;;5.23;4.73;;;25.50;61.60;;;;;;5053600;28;20941;-73
2022/07/25 01:00:08;;;;;;;4.37;3.97;;;25.40;61.90;;;;;;5053717;28;20176;-74
2022/07/25 01:02:34;;;;;;;5.37;3.93;;;25.40;62.10;;;;;;5054038;28;20165;-73
2022/07/25 01:05:00;;;;;;;5.17;4.73;;;25.40;62.10;;;;;;5053567;28;20753;-74
2022/07/25 01:07:25;;;;;;;4.80;4.40;;;25.40;62.40;;;;;;5053716;28;20737;-74
2022/07/25 01:09:51;;;;;;;4.90;4.33;;;25.40;62.60;;;;;;5053826;28;20173;-72
2022/07/25 01:12:17;;;;;;;4.27;3.87;;;25.40;62.80;;;;;;5053583;28;20165;-73
2022/07/25 01:14:43;;;;;;;5.43;4.93;;;25.40;63.00;;;;;;5053384;28;20571;-72
2022/07/25 01:17:08;;;;;;;4.60;4.10;;;25.40;63.10;;;;;;5056730;28;20284;-73
2022/07/25 01:19:34;;;;;;;4.30;3.90;;;25.30;63.10;;;;;;5052698;28;20173;-73
2022/07/25 01:22:00;;;;;;;6.97;4.93;;;25.30;63.30;;;;;;5051937;28;20172;-73
2022/07/25 01:24:28;;;;;;;5.30;4.07;;;25.30;63.50;;;;;;5051707;28;20201;-73
2022/07/25 01:26:54;;;;;;;3.70;3.40;;;25.30;64.10;;;;;;5052963;28;20607;-73
2022/07/25 01:29:20;;;;;;;6.80;4.77;;;25.30;63.90;;;;;;5052011;28;20567;-74
2022/07/25 01:31:46;;;;;;;4.60;4.20;;;25.30;64.50;;;;;;5051985;28;20250;-73
2022/07/25 01:34:12;;;;;;;4.30;3.90;;;25.30;64.60;;;;;;5053235;28;20603;-74
2022/07/25 01:36:37;;;;;;;4.63;4.17;;;25.20;65.50;;;;;;5052882;28;20191;-73
2022/07/25 01:39:03;;;;;;;4.70;3.87;;;25.20;65.00;;;;;;5052961;28;20212;-72
2022/07/25 01:41:29;;;;;;;5.20;4.70;;;25.20;65.10;;;;;;5052664;28;20524;-72
2022/07/25 01:43:55;;;;;;;4.73;4.30;;;25.20;65.70;;;;;;5051367;28;20252;-72
2022/07/25 01:46:20;;;;;;;4.87;4.40;;;25.10;65.60;;;;;;5052441;28;20627;-73
2022/07/25 01:48:46;;;;;;;4.30;3.90;;;25.10;65.80;;;;;;5052924;28;20177;-72
2022/07/25 01:51:12;;;;;;;5.33;4.80;;;25.10;66.00;;;;;;5052756;28;20184;-73
2022/07/25 01:53:38;;;;;;;6.63;5.10;;;25.10;66.20;;;;;;5057415;28;20172;-73
2022/07/25 01:56:05;;;;;;;5.60;5.10;;;25.10;66.60;;;;;;5052496;28;20625;-73
2022/07/25 01:58:31;;;;;;;5.87;3.70;;;25.00;66.90;;;;;;5051271;28;20672;-72
2022/07/25 02:00:56;;;;;;;4.77;3.97;;;25.00;67.30;;;;;;5052761;28;20594;-74
2022/07/25 02:03:31;;;;;;;7.07;4.50;;;25.00;68.10;;;;;;5053204;28;20238;-73
2022/07/25 02:05:58;;;;;;;5.03;4.53;;;25.00;67.40;;;;;;5052266;28;20232;-73
2022/07/25 02:08:24;;;;;;;7.20;4.53;;;24.90;67.60;;;;;;5052451;28;20602;-73
2022/07/25 02:10:50;;;;;;;5.20;3.80;;;24.90;68.20;;;;;;5052213;28;20567;-73
2022/07/25 02:13:16;;;;;;;4.67;4.27;;;24.90;68.40;;;;;;5051072;28;20564;-72
2022/07/25 02:15:42;;;;;;;4.57;4.17;;;24.80;68.60;;;;;;5052113;28;20649;-72
2022/07/25 02:18:07;;;;;;;4.93;4.40;;;24.80;69.70;;;;;;5052009;28;20253;-73
2022/07/25 02:20:33;;;;;;;4.90;4.50;;;24.80;69.30;;;;;;5051894;28;20667;-73
2022/07/25 02:22:59;;;;;;;5.60;4.80;;;24.80;69.60;;;;;;5034278;28;20180;-73
2022/07/25 02:25:25;;;;;;;4.90;4.30;;;24.80;69.80;;;;;;5051834;28;20232;-73
2022/07/25 02:27:51;;;;;;;6.07;5.10;;;24.70;70.40;;;;;;5050656;28;20235;-73
2022/07/25 02:30:16;;;;;;;4.60;3.83;;;24.70;71.20;;;;;;5056379;28;20567;-73
2022/07/25 02:32:42;;;;;;;4.93;3.70;;;24.70;71.10;;;;;;5051834;28;20311;-73
2022/07/25 02:35:08;;;;;;;5.37;4.30;;;24.60;71.70;;;;;;5051791;28;20658;-73
2022/07/25 02:37:34;;;;;;;4.70;4.20;;;24.60;71.70;;;;;;5051772;28;20203;-73
2022/07/25 02:40:00;;;;;;;5.03;4.53;;;24.60;71.90;;;;;;5052183;28;20614;-79
2022/07/25 02:42:26;;;;;;;6.10;3.77;;;24.60;72.30;;;;;;5051921;28;20698;-78
2022/07/25 02:44:52;;;;;;;5.20;4.70;;;24.60;72.60;;;;;;5051604;28;20619;-79
2022/07/25 02:47:18;;;;;;;5.27;4.53;;;24.60;73.20;;;;;;5051426;28;20607;-79
2022/07/25 02:49:43;;;;;;;8.33;4.40;;;24.50;73.30;;;;;;5051749;28;20563;-78
2022/07/25 02:52:09;;;;;;;6.33;4.40;;;24.50;73.80;;;;;;5050403;28;20176;-78
2022/07/25 02:54:35;;;;;;;4.90;4.40;;;24.50;73.90;;;;;;5050146;28;20183;-79
2022/07/25 02:57:00;;;;;;;5.40;4.20;;;24.50;74.00;;;;;;5050318;28;20208;-78
2022/07/25 02:59:26;;;;;;;5.73;4.17;;;24.50;74.20;;;;;;5051550;28;20173;-78
2022/07/25 03:01:52;;;;;;;6.23;4.70;;;24.50;74.80;;;;;;5051569;28;20276;-79
2022/07/25 03:04:18;;;;;;;4.43;4.03;;;24.40;74.60;;;;;;5051615;28;20188;-78
2022/07/25 03:06:44;;;;;;;4.77;4.37;;;24.40;74.70;;;;;;5055251;28;20223;-78
2022/07/25 03:09:10;;;;;;;5.23;4.67;;;24.40;75.00;;;;;;5051517;28;20606;-78
2022/07/25 03:11:35;;;;;;;5.17;4.67;;;24.40;75.30;;;;;;5050122;28;20601;-78
2022/07/25 03:14:02;;;;;;;5.57;5.07;;;24.40;75.70;;;;;;5051091;28;20623;-78
2022/07/25 03:16:28;;;;;;;5.73;4.80;;;24.40;75.70;;;;;;5051457;28;20222;-78
2022/07/25 03:18:54;;;;;;;4.63;4.23;;;24.40;76.00;;;;;;5051205;28;20563;-78
2022/07/25 03:21:19;;;;;;;4.70;4.30;;;24.40;76.50;;;;;;5033454;28;20640;-78
2022/07/25 03:23:45;;;;;;;6.13;5.20;;;24.40;77.10;;;;;;5051273;28;20193;-78
2022/07/25 03:26:11;;;;;;;4.70;4.30;;;24.30;78.00;;;;;;5050875;28;20669;-77
2022/07/25 03:28:37;;;;;;;4.63;4.23;;;24.30;77.10;;;;;;5051243;28;20574;-78
2022/07/25 03:31:03;;;;;;;4.23;3.50;;;24.30;77.30;;;;;;5051288;28;20165;-78
2022/07/25 03:33:28;;;;;;;4.73;4.30;;;24.30;77.60;;;;;;5051317;28;20586;-77
2022/07/25 03:35:55;;;;;;;5.13;4.73;;;24.30;78.00;;;;;;5049808;28;20662;-77
2022/07/25 03:38:21;;;;;;;4.97;4.57;;;24.30;78.40;;;;;;5051148;28;20189;-78
2022/07/25 03:40:46;;;;;;;5.03;4.37;;;24.30;78.80;;;;;;5050096;28;20568;-78
2022/07/25 03:43:12;;;;;;;4.57;4.17;;;24.20;79.90;;;;;;5058639;28;20181;-78
2022/07/25 03:45:38;;;;;;;4.10;3.77;;;24.20;79.80;;;;;;5054642;28;20208;-78
2022/07/25 03:48:04;;;;;;;4.90;4.50;;;24.20;80.20;;;;;;5054995;28;21053;-77
2022/07/25 03:50:30;;;;;;;6.07;4.67;;;24.20;81.10;;;;;;5054984;28;20193;-78
2022/07/25 03:52:56;;;;;;;4.90;4.37;;;24.20;81.20;;;;;;5053906;28;20579;-78
2022/07/25 03:55:21;;;;;;;5.27;4.80;;;24.20;81.30;;;;;;5054589;28;20176;-78
2022/07/25 03:57:47;;;;;;;5.40;4.90;;;24.20;81.90;;;;;;5054871;28;20197;-78
2022/07/25 04:00:13;;;;;;;4.93;4.40;;;24.20;82.20;;;;;;5053709;28;20216;-78
2022/07/25 04:02:39;;;;;;;4.23;3.93;;;24.20;82.10;;;;;;5054693;28;20768;-78
2022/07/25 04:05:06;;;;;;;5.37;4.87;;;24.20;82.30;;;;;;5053301;28;20695;-78
2022/07/25 04:07:32;;;;;;;4.27;3.87;;;24.20;82.40;;;;;;5054451;28;20530;-78
2022/07/25 04:09:58;;;;;;;5.00;4.00;;;24.20;82.90;;;;;;5054511;28;21036;-79
2022/07/25 04:12:24;;;;;;;3.97;3.60;;;24.20;82.80;;;;;;5054716;28;20658;-78
2022/07/25 04:14:49;;;;;;;4.77;4.07;;;24.20;83.00;;;;;;5054243;28;20234;-78
2022/07/25 04:17:15;;;;;;;5.27;4.77;;;24.20;83.30;;;;;;5054787;28;20196;-79
2022/07/25 04:19:41;;;;;;;5.03;4.50;;;24.10;84.50;;;;;;5058435;28;20165;-79
2022/07/25 04:22:07;;;;;;;5.27;4.77;;;24.10;83.70;;;;;;5054604;28;20633;-79
2022/07/25 04:24:33;;;;;;;5.20;4.70;;;24.10;84.30;;;;;;5054058;28;20243;-78
2022/07/25 04:26:58;;;;;;;5.23;4.77;;;24.10;84.50;;;;;;5052792;28;20307;-78
2022/07/25 04:29:24;;;;;;;5.50;5.03;;;24.10;84.80;;;;;;5054317;28;20169;-78
2022/07/25 04:31:50;;;;;;;5.77;4.80;;;24.10;84.80;;;;;;5052883;28;20181;-78
2022/07/25 04:34:16;;;;;;;5.80;4.70;;;24.10;85.00;;;;;;5053962;28;20281;-78
2022/07/25 04:36:41;;;;;;;4.80;4.37;;;24.10;85.40;;;;;;5054204;28;20237;-78
2022/07/25 04:39:07;;;;;;;5.90;4.53;;;24.10;85.60;;;;;;5054015;28;20173;-78
2022/07/25 04:41:33;;;;;;;4.90;4.40;;;24.10;85.70;;;;;;5052929;28;20165;-79
2022/07/25 04:43:59;;;;;;;5.13;4.67;;;24.20;86.10;;;;;;5052744;28;20895;-79
2022/07/25 04:46:24;;;;;;;6.20;4.13;;;24.20;86.30;;;;;;5053929;28;20679;-78
2022/07/25 04:48:50;;;;;;;4.50;4.10;;;24.20;86.30;;;;;;5054188;28;20580;-78
2022/07/25 04:51:17;;;;;;;6.00;5.47;;;24.30;86.50;;;;;;5052557;28;20940;-78
2022/07/25 04:53:43;;;;;;;4.80;4.40;;;24.40;86.80;;;;;;5053973;28;20222;-78
2022/07/25 04:56:09;;;;;;;5.10;4.60;;;24.40;86.80;;;;;;5058685;28;20817;-78
2022/07/25 04:58:35;;;;;;;6.53;4.33;;;24.50;87.00;;;;;;5043457;28;20701;-78
2022/07/25 05:01:01;;;;;;;4.80;3.80;;;24.60;87.10;;;;;;5053098;28;20331;-79
2022/07/25 05:03:27;;;;;;;6.20;4.30;;;24.70;87.30;;;;;;5053823;28;20173;-79
2022/07/25 05:05:52;;;;;;;5.07;4.40;;;24.90;87.30;;;;;;5053258;28;21230;-79
2022/07/25 05:08:18;;;;;;;4.90;4.50;;;25.00;87.10;;;;;;5053438;28;20677;-79
2022/07/25 05:10:44;;;;;;;5.43;4.93;;;25.10;86.80;;;;;;5052027;28;20197;-79
2022/07/25 05:13:10;;;;;;;7.53;5.60;;;25.20;86.50;;;;;;5053518;28;20227;-78
2022/07/25 05:15:36;;;;;;;7.13;4.50;;;25.30;86.40;;;;;;5053128;28;20674;-78
2022/07/25 05:18:01;;;;;;;4.07;3.67;;;25.40;86.10;;;;;;5052066;28;20192;-78
2022/07/25 05:20:27;;;;;;;7.03;4.57;;;25.50;86.00;;;;;;5053208;28;20162;-79
2022/07/25 05:22:53;;;;;;;5.50;4.50;;;25.60;85.50;;;;;;5053333;28;20600;-80
2022/07/25 05:25:19;;;;;;;4.80;4.40;;;25.70;85.20;;;;;;5053190;28;20738;-81
2022/07/25 05:27:45;;;;;;;5.47;4.43;;;25.80;84.70;;;;;;5051841;28;20220;-81
2022/07/25 05:30:13;;;;;;;5.60;4.53;;;25.90;84.30;;;;;;5053192;28;21124;-81
2022/07/25 05:32:40;;;;;;;5.60;5.10;;;26.00;84.10;;;;;;5058667;28;20685;-82
2022/07/25 05:35:07;;;;;;;5.10;4.60;;;26.00;83.30;;;;;;5053000;28;20663;-82
2022/07/25 05:37:34;;;;;;;6.17;4.60;;;26.10;83.30;;;;;;5035258;28;21443;-81
2022/07/25 05:40:00;;;;;;;6.40;4.43;;;26.10;82.80;;;;;;5053092;28;20909;-82
2022/07/25 05:42:27;;;;;;;5.63;4.70;;;26.10;82.40;;;;;;5051961;28;21012;-82
2022/07/25 05:44:53;;;;;;;4.23;3.83;;;26.20;82.40;;;;;;5052745;28;20669;-82
2022/07/25 05:47:19;;;;;;;4.47;4.07;;;26.30;82.50;;;;;;5051654;28;20974;-81
2022/07/25 05:49:45;;;;;;;5.23;4.10;;;26.30;82.20;;;;;;5051539;28;20556;-82
2022/07/25 05:52:10;;;;;;;5.73;4.60;;;26.30;82.10;;;;;;5050868;28;20227;-82
2022/07/25 05:54:36;;;;;;;4.50;4.10;;;26.40;81.70;;;;;;5051635;28;20534;-81
2022/07/25 05:57:02;;;;;;;4.13;3.73;;;26.50;81.70;;;;;;5052148;28;20189;-80
2022/07/25 05:59:28;;;;;;;6.20;4.00;;;26.60;81.70;;;;;;5052685;28;20169;-80
2022/07/25 06:01:54;;;;;;;5.93;5.17;;;26.70;81.70;;;;;;5035058;28;20593;-79
2022/07/25 06:04:19;;;;;;;4.70;4.20;;;26.80;81.10;;;;;;5031080;28;20192;-80
2022/07/25 06:06:50;;;;;;;6.87;4.90;;;26.80;80.80;;;;;;5031320;28;20193;-80
2022/07/25 06:09:20;;;;;;;5.07;3.67;;;26.80;80.40;;;;;;5040827;28;20227;-80
2022/07/25 06:11:47;;;;;;;5.67;4.23;;;26.90;80.20;;;;;;5057321;28;20578;-80
2022/07/25 06:14:13;;;;;;;4.83;4.03;;;27.10;80.40;;;;;;5052662;28;20929;-80
2022/07/25 06:16:39;;;;;;;6.10;4.40;;;27.40;80.70;;;;;;5051904;28;20591;-80
2022/07/25 06:19:05;;;;;;;4.60;4.20;;;27.70;80.30;;;;;;5055610;28;20571;-79
2022/07/25 06:21:31;;;;;;;4.43;3.77;;;28.10;80.30;;;;;;5062478;28;20621;-80
2022/07/25 06:23:57;;;;;;;4.73;4.27;;;28.80;81.00;;;;;;5031525;28;20260;-81
2022/07/25 06:26:23;;;;;;;6.03;4.40;;;29.50;79.30;;;;;;5031448;28;20194;-81
2022/07/25 06:28:50;;;;;;;10.17;4.10;;;30.00;77.30;;;;;;5032002;28;20448;-81
2022/07/25 06:31:16;;;;;;;5.07;4.00;;;30.40;75.30;;;;;;5031707;28;20567;-81
2022/07/25 06:33:42;;;;;;;5.20;3.93;;;30.70;72.40;;;;;;5032092;28;20571;-81
2022/07/25 06:36:08;;;;;;;4.50;3.80;;;31.10;72.30;;;;;;5030201;28;20608;-81
2022/07/25 06:38:34;;;;;;;3.63;3.30;;;31.50;71.70;;;;;;5031792;28;20979;-81
2022/07/25 06:40:59;;;;;;;4.37;3.97;;;32.00;71.00;;;;;;5031781;28;20578;-81
2022/07/25 06:43:25;;;;;;;4.70;4.30;;;32.30;68.50;;;;;;5032131;28;20174;-80
2022/07/25 06:45:51;;;;;;;3.90;3.30;;;32.60;67.60;;;;;;5032686;28;20265;-81
2022/07/25 06:48:17;;;;;;;6.00;3.93;;;33.00;67.30;;;;;;5032278;28;20191;-81
2022/07/25 06:50:44;;;;;;;4.23;3.90;;;33.10;64.40;;;;;;5031640;28;20195;-80
2022/07/25 06:53:10;;;;;;;4.93;4.43;;;33.10;62.20;;;;;;5030693;28;20196;-78
2022/07/25 06:55:35;;;;;;;3.93;3.40;;;32.90;60.90;;;;;;5030427;28;20581;-78
2022/07/25 06:58:01;;;;;;;4.10;3.70;;;32.80;61.10;;;;;;5029826;28;20774;-78
2022/07/25 07:00:27;;;;;;;4.20;3.80;;;32.80;60.70;;;;;;5029864;28;20576;-77
2022/07/25 07:03:00;;;;;;;3.87;3.57;;;32.80;60.70;;;;;;5030983;28;20615;-78
2022/07/25 07:05:30;;;;;;;3.73;3.43;;;32.70;60.40;;;;;;5029930;28;20206;-77
2022/07/25 07:07:56;;;;;;;4.40;4.00;;;32.80;61.30;;;;;;5031074;28;20613;-77
2022/07/25 07:10:22;;;;;;;5.23;3.80;;;32.90;61.20;;;;;;5030897;28;20570;-78
2022/07/25 07:12:49;;;;;;;4.60;4.00;;;33.10;61.00;;;;;;5025236;28;20606;-77
2022/07/25 07:15:16;;;;;;;5.20;3.70;;;33.40;61.20;;;;;;5036092;28;20587;-78
2022/07/25 07:17:41;;;;;;;5.33;3.50;;;33.70;61.40;;;;;;5054072;28;20613;-77
2022/07/25 07:20:08;;;;;;;4.70;4.30;;;34.10;61.20;;;;;;5055393;28;20929;-78
2022/07/25 07:22:52;;;;;;;4.10;3.70;;;34.40;60.90;;;;;;5042681;28;20187;-79
2022/07/25 07:25:20;;;;;;;3.73;3.43;;;34.50;59.20;;;;;;5035274;28;20629;-79
2022/07/25 07:27:46;;;;;;;4.97;4.47;;;34.60;58.70;;;;;;5033872;28;21025;-78
2022/07/25 07:30:15;;;;;;;5.83;3.90;;;34.70;57.90;;;;;;5034298;28;20563;-77
2022/07/25 07:32:42;;;;;;;4.23;3.83;;;34.90;58.00;;;;;;5032830;28;20622;-78
2022/07/25 07:35:08;;;;;;;3.77;3.47;;;35.20;57.80;;;;;;5033903;28;20568;-77
2022/07/25 07:37:34;;;;;;;4.07;3.70;;;35.70;57.60;;;;;;5034027;28;21156;-77
2022/07/25 07:40:00;;;;;;;5.60;3.30;;;35.90;57.10;;;;;;5033744;28;20583;-77
2022/07/25 07:42:26;;;;;;;4.37;3.60;;;36.10;55.70;;;;;;5034646;28;21146;-78
2022/07/25 07:44:52;;;;;;;6.63;4.10;;;36.20;55.30;;;;;;5034567;28;20616;-77
2022/07/25 07:47:20;;;;;;;4.80;4.27;;;36.30;54.50;;;;;;5042926;28;20200;-77
2022/07/25 07:49:46;;;;;;;5.63;3.40;;;36.20;54.00;;;;;;5054809;28;20204;-77
2022/07/25 07:52:12;;;;;;;4.70;3.80;;;36.20;53.80;;;;;;5054798;28;20606;-78
2022/07/25 07:57:38;;;;;;;5.23;3.13;;;36.30;53.60;;;;;;4976929;28;20552;-77
2022/07/25 08:00:05;;;;;;;4.90;3.50;;;36.50;53.50;;;;;;5043542;28;20725;-77
2022/07/25 08:02:49;;;;;;;3.90;3.50;;;36.60;53.40;;;;;;5054649;28;20204;-78
2022/07/25 08:05:43;;;;;;;4.30;3.90;;;36.70;52.90;;;;;;5054230;28;20992;-77
2022/07/25 08:08:11;;;;;;;4.53;3.67;;;36.80;52.90;;;;;;5044101;28;20954;-78
2022/07/25 08:10:40;;;;;;;4.43;4.03;;;36.90;52.80;;;;;;5054193;28;20594;-78
2022/07/25 08:13:16;;;;;;;5.00;3.10;;;37.00;52.30;;;;;;5052967;28;21123;-77
2022/07/25 08:15:43;;;;;;;6.60;3.70;;;37.00;51.50;;;;;;5036098;28;21157;-78
2022/07/25 08:18:10;;;;;;;3.60;2.77;;;37.00;51.40;;;;;;5036675;28;20606;-77
2022/07/25 08:20:36;;;;;;;3.60;3.30;;;36.90;51.30;;;;;;5036402;28;21230;-78
2022/07/25 08:23:02;;;;;;;3.77;3.47;;;36.80;51.00;;;;;;5055149;28;20582;-78
2022/07/25 08:25:29;;;;;;;4.43;3.93;;;36.60;50.60;;;;;;5055457;28;20622;-77
2022/07/25 08:27:55;;;;;;;3.97;3.67;;;36.40;50.40;;;;;;5054702;28;21186;-78
2022/07/25 08:30:20;;;;;;;3.17;2.97;;;36.20;50.10;;;;;;5054320;28;20582;-76
2022/07/25 08:32:55;;;;;;;3.50;3.30;;;36.10;50.20;;;;;;5053932;28;20579;-78
2022/07/25 08:35:21;;;;;;;3.37;3.10;;;35.90;50.00;;;;;;5059356;28;20662;-77
2022/07/25 08:37:48;;;;;;;3.70;2.80;;;35.70;50.00;;;;;;5052803;28;20608;-77
2022/07/25 08:40:16;;;;;;;4.40;4.00;;;35.50;50.10;;;;;;5035780;28;20682;-78
2022/07/25 08:42:42;;;;;;;3.77;3.37;;;35.30;50.20;;;;;;5034283;28;21021;-77
2022/07/25 08:45:11;;;;;;;4.27;3.87;;;35.10;50.20;;;;;;5033540;28;20658;-77
2022/07/25 08:47:39;;;;;;;4.70;3.67;;;35.00;50.20;;;;;;5016644;28;20191;-77
2022/07/25 08:50:08;;;;;;;6.43;4.03;;;34.80;50.20;;;;;;5035656;28;20994;-78
2022/07/25 08:52:36;;;;;;;4.50;3.67;;;34.60;49.90;;;;;;5017376;28;20949;-79
2022/07/25 08:55:07;;;;;;;4.30;3.47;;;34.40;49.80;;;;;;5033712;28;20579;-79
2022/07/25 08:57:34;;;;;;;4.20;3.70;;;34.30;50.00;;;;;;5015075;28;20975;-80
2022/07/25 09:00:01;;;;;;;4.77;3.97;;;34.20;50.20;;;;;;5015371;28;20571;-80
2022/07/25 09:02:28;;;;;;;6.30;4.13;;;34.10;50.50;;;;;;5015392;28;20641;-77
2022/07/25 09:04:55;;;;;;;4.43;4.03;;;34.20;50.70;;;;;;5012508;28;20712;-77
2022/07/25 09:07:40;;;;;;;4.53;4.13;;;34.20;50.60;;;;;;5014122;28;20609;-77
2022/07/25 09:10:19;;;;;;;4.03;2.97;;;34.10;50.30;;;;;;5043895;28;20696;-76
2022/07/25 09:12:56;;;;;;;4.40;3.97;;;34.20;50.60;;;;;;5041267;28;21011;-77
2022/07/25 09:15:24;;;;;;;4.23;3.17;;;34.50;51.10;;;;;;5039605;28;20607;-76
2022/07/25 09:17:54;;;;;;;3.77;2.90;;;35.10;52.50;;;;;;5015377;28;21017;-76
2022/07/25 09:20:20;;;;;;;3.70;3.40;;;35.80;52.20;;;;;;5031670;28;21032;-77
2022/07/25 09:22:47;;;;;;;3.70;3.40;;;36.60;52.20;;;;;;5047953;28;20609;-78
2022/07/25 09:25:24;;;;;;;3.97;3.67;;;37.50;51.80;;;;;;5045564;28;20623;-77
2022/07/25 09:27:50;;;;;;;3.57;3.27;;;38.30;50.70;;;;;;5047676;28;20642;-76
2022/07/25 09:30:16;;;;;;;3.60;3.30;;;39.10;50.00;;;;;;5038487;28;20715;-77
2022/07/25 09:32:42;;;;;;;4.00;3.50;;;39.70;49.30;;;;;;5032985;28;20576;-76
2022/07/25 09:35:08;;;;;;;4.43;4.03;;;40.00;47.00;;;;;;5015040;28;20671;-77
2022/07/25 09:37:33;;;;;;;4.30;3.87;;;40.20;46.30;;;;;;5040108;28;20746;-78
2022/07/25 09:39:59;;;;;;;3.90;3.60;;;40.20;45.10;;;;;;5043751;28;20626;-77
2022/07/25 09:42:32;;;;;;;3.77;3.37;;;40.20;45.70;;;;;;5040687;28;20664;-77
2022/07/25 09:45:11;;;;;;;6.50;3.73;;;40.20;44.40;;;;;;5044533;28;20206;-78
2022/07/25 09:47:55;;;;;;;4.50;4.10;;;40.10;43.70;;;;;;5033398;28;20612;-78
2022/07/25 09:50:23;;;;;;;6.70;3.27;;;39.80;43.60;;;;;;5032377;28;21021;-77
2022/07/25 09:52:55;;;;;;;3.70;3.40;;;39.40;43.30;;;;;;5031583;28;20568;-78
2022/07/25 09:55:21;;;;;;;3.83;3.53;;;39.00;43.20;;;;;;5031223;28;20604;-77
2022/07/25 09:57:48;;;;;;;3.97;3.30;;;38.50;43.20;;;;;;5032190;28;20689;-77
2022/07/25 10:00:19;;;;;;;4.67;3.70;;;38.00;43.30;;;;;;5031214;28;20687;-76
2022/07/25 10:02:54;;;;;;;4.57;3.80;;;37.50;43.40;;;;;;5031259;28;20672;-76
2022/07/25 10:05:22;;;;;;;4.50;4.00;;;37.00;43.80;;;;;;5030990;28;20689;-76
2022/07/25 10:07:51;;;;;;;4.43;4.03;;;36.40;44.00;;;;;;5030957;28;20622;-76
2022/07/25 10:10:35;;;;;;;3.80;3.43;;;35.90;44.20;;;;;;5032444;28;21232;-76
2022/07/25 10:13:09;;;;;;;3.50;3.20;;;35.30;44.80;;;;;;5030597;28;20641;-76
2022/07/25 10:15:44;;;;;;;4.73;3.20;;;34.80;45.50;;;;;;5028240;28;20601;-76
2022/07/25 10:18:10;;;;;;;5.37;4.87;;;34.20;46.00;;;;;;5015400;28;20631;-75
2022/07/25 10:20:36;;;;;;;4.20;3.40;;;33.70;46.40;;;;;;5031098;28;20600;-76
2022/07/25 10:23:15;;;;;;;7.63;4.00;;;33.30;47.20;;;;;;5031556;28;21151;-76
2022/07/25 10:25:41;;;;;;;6.73;4.50;;;32.80;47.90;;;;;;5035774;28;21107;-76
2022/07/25 10:28:08;;;;;;;6.20;5.10;;;32.40;48.50;;;;;;5031842;28;21160;-76
2022/07/25 10:30:37;;;;;;;4.37;3.70;;;32.10;49.30;;;;;;5031762;28;20614;-76
2022/07/25 10:33:16;;;;;;;4.30;3.90;;;31.80;49.90;;;;;;5031873;28;20669;-76
2022/07/25 10:35:43;;;;;;;4.07;3.67;;;31.60;50.90;;;;;;5031477;28;20663;-77
2022/07/25 10:38:09;;;;;;;3.90;3.50;;;31.30;51.00;;;;;;5031490;28;20600;-77
2022/07/25 10:40:38;;;;;;;9.63;4.23;;;31.20;51.60;;;;;;5031150;28;20568;-76
2022/07/25 10:43:04;;;;;;;5.00;4.60;;;31.10;52.50;;;;;;5030859;28;20577;-77
2022/07/25 10:45:40;;;;;;;5.00;4.30;;;31.00;52.90;;;;;;5030738;28;20612;-77
2022/07/25 10:48:08;;;;;;;4.50;4.10;;;31.00;53.20;;;;;;5031643;28;20216;-77
2022/07/25 10:50:34;;;;;;;5.37;4.00;;;31.00;53.10;;;;;;5031581;28;20651;-77
2022/07/25 10:53:00;;;;;;;4.20;3.80;;;30.90;53.20;;;;;;5031895;28;20660;-76
2022/07/25 10:55:27;;;;;;;4.10;3.70;;;30.90;53.30;;;;;;5031284;28;20166;-77
2022/07/25 10:58:05;;;;;;;4.20;3.80;;;30.90;53.40;;;;;;5031639;28;20603;-77
2022/07/25 11:00:32;;;;;;;5.53;3.40;;;31.00;53.70;;;;;;5032253;28;20568;-76
2022/07/25 11:02:59;;;;;;;3.80;3.33;;;31.20;53.80;;;;;;5035836;28;20933;-76
2022/07/25 11:05:25;;;;;;;4.77;3.30;;;31.30;54.00;;;;;;5026624;28;20727;-76
2022/07/25 11:07:52;;;;;;;5.13;3.83;;;31.60;54.30;;;;;;5029521;28;20610;-76
2022/07/25 11:10:26;;;;;;;4.07;3.67;;;31.80;54.40;;;;;;5031308;28;20672;-77
2022/07/25 11:12:52;;;;;;;4.70;4.23;;;32.30;54.90;;;;;;5031500;28;20965;-77
2022/07/25 11:15:25;;;;;;;3.70;2.90;;;32.90;54.90;;;;;;5031269;28;20556;-77
2022/07/25 11:17:52;;;;;;;4.40;3.80;;;33.40;54.70;;;;;;5031494;28;20605;-77
2022/07/25 11:20:18;;;;;;;7.80;3.97;;;33.80;53.70;;;;;;5031228;28;20600;-76
2022/07/25 11:22:52;;;;;;;3.23;2.50;;;34.10;52.80;;;;;;5031534;28;21218;-76
2022/07/25 11:25:21;;;;;;;6.83;3.20;;;34.20;51.70;;;;;;5032552;28;20631;-78
2022/07/25 11:27:58;;;;;;;4.83;3.53;;;34.40;51.30;;;;;;5048422;28;20661;-77
2022/07/25 11:30:27;;;;;;;3.30;3.00;;;34.40;50.30;;;;;;5030501;28;21211;-78
2022/07/25 11:32:55;;;;;;;4.00;2.77;;;34.40;50.20;;;;;;5029427;28;20677;-79
2022/07/25 11:35:29;;;;;;;4.83;2.60;;;34.30;49.80;;;;;;5030542;28;20707;-78
2022/07/25 11:37:56;;;;;;;5.23;2.83;;;34.40;49.80;;;;;;5030662;28;20623;-79
2022/07/25 11:40:22;;;;;;;2.97;2.37;;;34.30;49.70;;;;;;5030626;28;20577;-78
2022/07/25 11:42:53;;;;;;;2.93;2.67;;;34.20;49.40;;;;;;5030671;28;20709;-78
2022/07/25 11:45:32;;;;;;;4.73;3.27;;;34.10;49.60;;;;;;5030265;28;20979;-77
2022/07/25 11:48:08;;;;;;;4.40;3.47;;;34.00;49.60;;;;;;5030811;28;20663;-78
2022/07/25 11:50:43;;;;;;;5.07;4.57;;;33.90;49.60;;;;;;5030606;28;20574;-78
2022/07/25 11:53:13;;;;;;;3.63;3.33;;;34.00;49.60;;;;;;5029639;28;20566;-77
2022/07/25 11:55:41;;;;;;;4.23;3.10;;;34.00;49.30;;;;;;5030290;28;20641;-79
2022/07/25 11:58:08;;;;;;;3.60;2.73;;;34.00;49.00;;;;;;5030500;28;20973;-78
2022/07/25 12:00:40;;;;;;;5.73;3.80;;;34.00;48.60;;;;;;5030371;28;20579;-78
2022/07/25 12:03:07;;;;;;;4.77;4.27;;;34.10;48.60;;;;;;5031459;28;20680;-77
2022/07/25 12:05:33;;;;;;;3.73;3.27;;;34.20;48.70;;;;;;5032464;28;20699;-78
2022/07/25 12:08:11;;;;;;;4.00;2.90;;;34.30;48.80;;;;;;5034134;28;21012;-78
2022/07/25 12:10:38;;;;;;;4.50;3.30;;;34.40;48.10;;;;;;5033773;28;20578;-78
2022/07/25 12:13:06;;;;;;;4.00;3.40;;;34.40;48.00;;;;;;5029767;28;20599;-78
2022/07/25 12:15:39;;;;;;;2.80;2.40;;;34.40;47.60;;;;;;5026569;28;20584;-77
2022/07/25 12:18:08;;;;;;;6.03;3.20;;;34.30;47.40;;;;;;5014391;28;20590;-77
2022/07/25 12:20:38;;;;;;;3.87;2.27;;;34.20;47.00;;;;;;5028323;28;20586;-78
2022/07/25 12:23:07;;;;;;;2.70;2.30;;;34.10;47.00;;;;;;5033373;28;20944;-78
2022/07/25 12:25:35;;;;;;;3.60;2.20;;;33.80;47.00;;;;;;5033401;28;20617;-79
2022/07/25 12:28:02;;;;;;;2.70;2.10;;;33.70;47.20;;;;;;5033696;28;21203;-77
2022/07/25 12:30:28;;;;;;;3.00;1.70;;;33.60;47.50;;;;;;5033848;28;20572;-83
2022/07/25 12:32:55;;;;;;;2.27;2.00;;;33.50;47.60;;;;;;5032768;28;20964;-83
2022/07/25 12:35:21;;;;;;;2.00;1.60;;;33.40;47.50;;;;;;5016002;28;20582;-83
2022/07/25 12:37:47;;;;;;;2.63;1.60;;;33.30;47.60;;;;;;5032960;28;20615;-84
2022/07/25 12:40:13;;;;;;;3.20;2.40;;;33.20;48.00;;;;;;5042380;28;20924;-84
2022/07/25 12:42:40;;;;;;;3.03;2.47;;;33.10;48.20;;;;;;5019795;28;20584;-83
2022/07/25 12:45:07;;;;;;;5.70;2.60;;;33.10;48.50;;;;;;5036981;28;20624;-83
2022/07/25 12:47:33;;;;;;;4.33;2.63;;;33.10;48.70;;;;;;5042589;28;20657;-84
2022/07/25 12:50:00;;;;;;;6.03;2.70;;;33.10;49.00;;;;;;5054314;28;20563;-84
2022/07/25 12:52:26;;;;;;;6.07;2.70;;;33.10;49.40;;;;;;5054518;28;21146;-83